Time;durP1;ratioP1;P1;durP2;ratioP2;P2;SDS_P1;SDS_P2;PMS_P1;PMS_P2;Temp;Humidity;BMP_temperature;BMP_pressure;BME280_temperature;BME280_humidity;BME280_pressure;Samples;Min_cycle;Max_cycle;Signal;HPM_P1;HPM_P2
2023/06/09 00:02:20;;;;;;;6.25;5.55;;;16.30;62.10;;;;;;5094286;28;20438;-77
2023/06/09 00:04:46;;;;;;;6.80;6.20;;;16.30;62.30;;;;;;5094705;28;20020;-81
2023/06/09 00:07:15;;;;;;;8.00;6.00;;;16.30;62.40;;;;;;5096438;28;20024;-81
2023/06/09 00:09:44;;;;;;;6.78;6.05;;;16.40;62.30;;;;;;5097146;28;20020;-78
2023/06/09 00:12:12;;;;;;;6.25;5.68;;;16.40;62.30;;;;;;5102381;28;20012;-80
2023/06/09 00:14:37;;;;;;;6.65;5.97;;;16.40;62.30;;;;;;5093584;28;20031;-72
2023/06/09 00:17:07;;;;;;;6.40;5.80;;;16.40;62.30;;;;;;5092145;28;20024;-80
2023/06/09 00:19:36;;;;;;;8.73;6.97;;;16.50;62.30;;;;;;5092051;28;20028;-82
2023/06/09 00:22:02;;;;;;;8.02;7.22;;;16.40;62.50;;;;;;5093209;28;20029;-73
2023/06/09 00:24:28;;;;;;;9.23;6.53;;;16.30;62.40;;;;;;5092014;28;20032;-78
2023/06/09 00:26:54;;;;;;;10.05;6.88;;;16.30;62.70;;;;;;5092027;28;20012;-80
2023/06/09 00:29:24;;;;;;;6.45;5.85;;;16.30;62.80;;;;;;5093162;28;20476;-83
2023/06/09 00:31:50;;;;;;;6.80;5.78;;;16.20;62.90;;;;;;5093123;28;20020;-80
2023/06/09 00:34:15;;;;;;;6.50;5.90;;;16.20;63.10;;;;;;5093079;28;20097;-77
2023/06/09 00:36:41;;;;;;;8.10;6.25;;;16.20;63.20;;;;;;5093181;28;20020;-80
2023/06/09 00:39:07;;;;;;;6.60;6.00;;;16.20;63.20;;;;;;5095376;28;20081;-80
2023/06/09 00:41:36;;;;;;;7.90;6.00;;;16.20;63.30;;;;;;5097136;28;20024;-80
2023/06/09 00:44:03;;;;;;;7.20;6.50;;;16.20;63.50;;;;;;5097128;28;20392;-80
2023/06/09 00:46:28;;;;;;;7.30;6.57;;;16.10;63.80;;;;;;5096674;28;20361;-74
2023/06/09 00:48:54;;;;;;;8.38;6.70;;;16.00;64.00;;;;;;5097143;28;20035;-74
2023/06/09 00:51:19;;;;;;;6.70;5.97;;;15.80;64.40;;;;;;5097188;28;20028;-71
2023/06/09 00:53:45;;;;;;;8.82;6.57;;;15.80;64.60;;;;;;5097196;28;20031;-72
2023/06/09 00:56:12;;;;;;;6.65;6.05;;;15.90;64.60;;;;;;5096909;28;20052;-73
2023/06/09 00:58:37;;;;;;;8.25;7.15;;;15.90;64.40;;;;;;5096893;28;20020;-75
2023/06/09 01:01:04;;;;;;;7.13;6.43;;;16.00;64.40;;;;;;5096949;28;20484;-76
2023/06/09 01:03:32;;;;;;;8.35;6.95;;;16.00;64.20;;;;;;5096803;28;20480;-72
2023/06/09 01:06:12;;;;;;;9.45;7.35;;;16.00;64.30;;;;;;5096690;28;20074;-72
2023/06/09 01:08:46;;;;;;;8.70;6.65;;;16.00;64.30;;;;;;5096661;28;20035;-78
2023/06/09 01:11:37;;;;;;;6.93;6.22;;;16.10;64.00;;;;;;5096583;28;20020;-80
2023/06/09 01:14:28;;;;;;;7.50;6.68;;;16.00;64.10;;;;;;5087997;28;20060;-77
2023/06/09 01:17:07;;;;;;;6.90;6.30;;;15.80;64.50;;;;;;5096646;28;20028;-75
2023/06/09 01:19:43;;;;;;;7.25;6.55;;;15.80;65.00;;;;;;5096851;28;20024;-74
2023/06/09 01:22:32;;;;;;;8.07;6.68;;;15.70;65.20;;;;;;5096451;28;20034;-82
2023/06/09 01:25:19;;;;;;;8.35;7.20;;;15.70;65.50;;;;;;5095188;28;20027;-81
2023/06/09 01:27:45;;;;;;;7.43;6.72;;;15.60;65.90;;;;;;5096374;28;20558;-79
2023/06/09 01:30:13;;;;;;;7.63;6.65;;;15.60;65.90;;;;;;5096113;28;20020;-78
2023/06/09 01:32:40;;;;;;;6.70;6.00;;;15.50;66.70;;;;;;5096183;28;20020;-77
2023/06/09 01:35:07;;;;;;;7.53;6.82;;;15.40;66.70;;;;;;5096287;28;20039;-76
2023/06/09 01:37:33;;;;;;;8.32;7.22;;;15.50;66.80;;;;;;5096105;28;20472;-77
2023/06/09 01:39:59;;;;;;;8.30;7.18;;;15.50;66.80;;;;;;5095897;28;20134;-74
2023/06/09 01:42:25;;;;;;;8.77;7.40;;;15.50;66.60;;;;;;5095705;28;20020;-77
2023/06/09 01:44:50;;;;;;;7.68;6.90;;;15.40;66.60;;;;;;5095976;28;20032;-77
2023/06/09 01:47:18;;;;;;;7.10;6.40;;;15.40;66.80;;;;;;5094730;28;20034;-73
2023/06/09 01:50:07;;;;;;;8.00;7.20;;;15.40;67.20;;;;;;5095696;28;20028;-73
2023/06/09 01:52:42;;;;;;;9.65;7.63;;;15.40;67.00;;;;;;5095999;28;20021;-78
2023/06/09 01:55:17;;;;;;;9.15;7.93;;;15.40;67.10;;;;;;5096056;28;20020;-77
2023/06/09 01:57:53;;;;;;;7.93;7.00;;;15.30;67.70;;;;;;5095945;28;20024;-77
2023/06/09 02:00:23;;;;;;;8.95;7.45;;;15.30;67.80;;;;;;5095783;28;20028;-78
2023/06/09 02:02:52;;;;;;;8.35;7.38;;;15.20;67.90;;;;;;5095524;28;20039;-77
2023/06/09 02:05:20;;;;;;;7.82;7.13;;;15.10;68.00;;;;;;5095803;28;20016;-79
2023/06/09 02:07:46;;;;;;;11.07;8.10;;;15.20;67.90;;;;;;5095594;28;20380;-74
2023/06/09 02:10:12;;;;;;;10.93;7.90;;;15.10;68.30;;;;;;5095580;28;20028;-77
2023/06/09 02:12:38;;;;;;;8.20;6.90;;;15.20;68.10;;;;;;5095657;28;20032;-77
2023/06/09 02:15:05;;;;;;;8.95;7.93;;;15.10;68.40;;;;;;5095663;28;20024;-75
2023/06/09 02:17:32;;;;;;;9.10;8.18;;;15.10;68.70;;;;;;5095301;28;20024;-71
2023/06/09 02:19:58;;;;;;;8.40;7.55;;;15.10;68.60;;;;;;5095329;28;20043;-70
2023/06/09 02:22:23;;;;;;;8.02;7.18;;;15.00;68.80;;;;;;5095247;28;20495;-74
2023/06/09 02:24:49;;;;;;;8.57;7.78;;;15.00;69.10;;;;;;5093934;28;20024;-73
2023/06/09 02:27:15;;;;;;;8.30;7.50;;;15.00;69.30;;;;;;5095236;28;20464;-72
2023/06/09 02:29:40;;;;;;;7.90;7.20;;;15.00;69.50;;;;;;5095115;28;20024;-71
2023/06/09 02:32:06;;;;;;;8.23;7.28;;;14.90;69.30;;;;;;5093725;28;20035;-74
2023/06/09 02:34:32;;;;;;;6.93;6.20;;;15.00;69.20;;;;;;5095139;28;20052;-77
2023/06/09 02:36:59;;;;;;;9.52;7.38;;;15.10;69.20;;;;;;5095086;28;20046;-71
2023/06/09 02:39:24;;;;;;;9.38;7.00;;;15.10;68.90;;;;;;5094823;28;20109;-71
2023/06/09 02:41:50;;;;;;;8.02;7.22;;;15.10;68.80;;;;;;5094830;28;20389;-71
2023/06/09 02:44:16;;;;;;;8.23;7.43;;;15.10;68.80;;;;;;5094884;28;20071;-71
2023/06/09 02:46:42;;;;;;;8.55;7.38;;;15.00;69.00;;;;;;5094750;28;20066;-70
2023/06/09 02:49:08;;;;;;;9.05;7.82;;;15.00;69.00;;;;;;5094726;28;20400;-70
2023/06/09 02:51:34;;;;;;;9.57;8.57;;;14.90;69.40;;;;;;5094929;28;20028;-70
2023/06/09 02:54:00;;;;;;;9.68;8.57;;;14.60;70.00;;;;;;5094509;28;20028;-70
2023/06/09 02:56:26;;;;;;;9.70;7.78;;;14.50;70.40;;;;;;5094684;28;20024;-70
2023/06/09 02:58:53;;;;;;;12.63;9.57;;;14.30;71.10;;;;;;5094575;28;20046;-70
2023/06/09 03:01:20;;;;;;;8.93;8.05;;;14.20;71.40;;;;;;5093837;28;20370;-73
2023/06/09 03:03:46;;;;;;;10.82;8.70;;;14.20;71.50;;;;;;5094705;28;20043;-72
2023/06/09 03:06:15;;;;;;;9.98;8.68;;;14.30;71.90;;;;;;5094356;28;20048;-72
2023/06/09 03:08:41;;;;;;;9.77;7.90;;;14.30;71.90;;;;;;5094525;28;20078;-72
2023/06/09 03:11:07;;;;;;;9.68;7.75;;;14.40;72.00;;;;;;5094321;28;20024;-72
2023/06/09 03:13:32;;;;;;;8.98;7.97;;;14.40;71.80;;;;;;5094376;28;20515;-72
2023/06/09 03:15:58;;;;;;;8.55;7.63;;;14.30;72.10;;;;;;5094111;28;20047;-72
2023/06/09 03:18:27;;;;;;;7.45;6.75;;;14.20;71.90;;;;;;5094135;28;20063;-72
2023/06/09 03:20:53;;;;;;;9.05;7.72;;;14.30;72.00;;;;;;5094124;28;20046;-72
2023/06/09 03:23:20;;;;;;;8.80;7.85;;;14.30;72.10;;;;;;5094017;28;20040;-74
2023/06/09 03:25:46;;;;;;;7.95;7.15;;;14.40;71.60;;;;;;5094041;28;20066;-72
2023/06/09 03:28:12;;;;;;;8.50;7.70;;;14.40;71.60;;;;;;5094081;28;20055;-72
2023/06/09 03:30:38;;;;;;;7.80;7.10;;;14.30;71.80;;;;;;5093993;28;20527;-72
2023/06/09 03:33:03;;;;;;;8.38;7.43;;;14.40;71.80;;;;;;5092667;28;20032;-71
2023/06/09 03:35:29;;;;;;;9.18;8.20;;;14.40;71.40;;;;;;5093887;28;20054;-71
2023/06/09 03:37:55;;;;;;;8.27;7.47;;;14.50;71.20;;;;;;5093650;28;20032;-72
2023/06/09 03:40:20;;;;;;;8.07;6.85;;;14.40;71.30;;;;;;5093980;28;20028;-71
2023/06/09 03:42:46;;;;;;;9.85;7.40;;;14.40;71.20;;;;;;5093460;28;20369;-74
2023/06/09 03:45:11;;;;;;;8.70;7.38;;;14.50;71.30;;;;;;5092650;28;20081;-71
2023/06/09 03:47:37;;;;;;;7.18;6.47;;;14.60;71.00;;;;;;5097491;28;20019;-72
2023/06/09 03:50:03;;;;;;;9.05;7.05;;;14.60;70.70;;;;;;5093681;28;20029;-72
2023/06/09 03:52:28;;;;;;;9.32;7.05;;;14.60;70.50;;;;;;5093469;28;20055;-72
2023/06/09 03:54:54;;;;;;;7.53;6.85;;;14.60;70.50;;;;;;5093448;28;20032;-72
2023/06/09 03:57:20;;;;;;;7.97;7.07;;;14.70;70.30;;;;;;5093506;28;20028;-72
2023/06/09 03:59:46;;;;;;;8.88;7.10;;;14.70;70.10;;;;;;5093276;28;20063;-72
2023/06/09 04:02:12;;;;;;;9.20;7.25;;;14.80;69.60;;;;;;5093460;28;20036;-71
2023/06/09 04:04:38;;;;;;;7.80;7.07;;;14.80;69.40;;;;;;5093413;28;20430;-71
2023/06/09 04:07:04;;;;;;;8.45;6.97;;;14.80;69.10;;;;;;5092092;28;20039;-71
2023/06/09 04:09:32;;;;;;;8.35;6.88;;;14.90;69.20;;;;;;5092103;28;20077;-72
2023/06/09 04:11:58;;;;;;;8.23;7.20;;;14.90;69.00;;;;;;5091549;28;20486;-71
2023/06/09 04:14:23;;;;;;;8.35;6.18;;;14.90;69.00;;;;;;5091468;28;20063;-71
2023/06/09 04:16:49;;;;;;;13.15;6.88;;;14.80;69.00;;;;;;5092011;28;20043;-72
2023/06/09 04:19:14;;;;;;;7.43;6.72;;;14.80;69.00;;;;;;5093110;28;20016;-73
2023/06/09 04:21:40;;;;;;;8.75;6.55;;;14.90;69.90;;;;;;5093197;28;20464;-72
2023/06/09 04:24:08;;;;;;;6.65;6.05;;;15.00;68.80;;;;;;5092013;28;20563;-72
2023/06/09 04:26:37;;;;;;;7.57;6.70;;;15.10;68.60;;;;;;5093045;28;20036;-72
2023/06/09 04:29:03;;;;;;;7.65;6.90;;;15.20;68.40;;;;;;5093222;28;20102;-71
2023/06/09 04:31:33;;;;;;;8.32;7.38;;;15.10;68.50;;;;;;5091984;28;20020;-70
2023/06/09 04:34:10;;;;;;;8.45;7.65;;;15.20;67.80;;;;;;5092005;28;20087;-70
2023/06/09 04:36:38;;;;;;;8.30;6.82;;;15.20;68.00;;;;;;5091796;28;20030;-72
2023/06/09 04:39:07;;;;;;;7.70;6.90;;;15.30;68.00;;;;;;5091479;28;20055;-71
2023/06/09 04:41:33;;;;;;;9.88;6.80;;;15.30;67.80;;;;;;5091721;28;20439;-71
2023/06/09 04:44:05;;;;;;;7.07;6.40;;;15.40;67.80;;;;;;5071434;28;20401;-71
2023/06/09 04:46:37;;;;;;;9.38;6.50;;;15.50;67.60;;;;;;5071563;28;20025;-72
2023/06/09 04:49:09;;;;;;;7.18;6.55;;;15.60;67.30;;;;;;5071490;28;20056;-71
2023/06/09 04:51:49;;;;;;;7.13;6.40;;;15.70;67.10;;;;;;5071355;28;20017;-71
2023/06/09 04:54:16;;;;;;;7.88;6.88;;;15.80;66.90;;;;;;5071682;28;20024;-70
2023/06/09 04:56:43;;;;;;;7.30;6.30;;;15.90;67.00;;;;;;5071451;28;20025;-71
2023/06/09 04:59:10;;;;;;;8.60;5.70;;;16.00;66.70;;;;;;5071377;28;20048;-72
2023/06/09 05:01:37;;;;;;;6.97;6.22;;;16.10;66.60;;;;;;5072473;28;20028;-71
2023/06/09 05:04:02;;;;;;;11.70;6.75;;;16.10;66.30;;;;;;5071213;28;20085;-70
2023/06/09 05:06:28;;;;;;;6.57;5.97;;;16.20;66.00;;;;;;5071567;28;20024;-71
2023/06/09 05:08:55;;;;;;;7.65;6.85;;;16.20;66.00;;;;;;5072319;28;20524;-76
2023/06/09 05:11:21;;;;;;;6.78;6.07;;;16.20;66.20;;;;;;5072483;28;20123;-78
2023/06/09 05:13:47;;;;;;;7.30;6.60;;;16.30;66.50;;;;;;5072489;28;20354;-72
2023/06/09 05:16:15;;;;;;;9.57;7.63;;;16.40;66.40;;;;;;5072406;28;20032;-71
2023/06/09 05:18:44;;;;;;;11.38;9.32;;;16.50;66.20;;;;;;5072530;28;20017;-71
2023/06/09 05:21:12;;;;;;;12.95;10.40;;;16.40;65.70;;;;;;5071309;28;20052;-71
2023/06/09 05:23:37;;;;;;;12.73;10.45;;;16.50;65.60;;;;;;5071216;28;20119;-80
2023/06/09 05:26:03;;;;;;;11.70;9.48;;;16.60;65.50;;;;;;5075953;28;20063;-72
2023/06/09 05:28:28;;;;;;;11.15;8.35;;;16.70;65.20;;;;;;5075896;28;20021;-71
2023/06/09 05:30:54;;;;;;;8.95;7.93;;;16.70;64.90;;;;;;5075800;28;20024;-71
2023/06/09 05:33:20;;;;;;;9.25;7.63;;;16.90;64.90;;;;;;5075644;28;20028;-70
2023/06/09 05:35:47;;;;;;;7.95;7.07;;;17.00;64.80;;;;;;5075818;28;20053;-72
2023/06/09 05:38:12;;;;;;;7.35;6.65;;;17.00;64.50;;;;;;5075664;28;20040;-76
2023/06/09 05:40:38;;;;;;;6.43;5.82;;;17.20;64.00;;;;;;5074469;28;20020;-73
2023/06/09 05:43:03;;;;;;;6.95;5.63;;;17.30;63.10;;;;;;5075081;28;20041;-72
2023/06/09 05:45:29;;;;;;;7.00;6.05;;;17.40;62.40;;;;;;5074142;28;20021;-78
2023/06/09 05:47:55;;;;;;;8.35;6.20;;;17.50;62.30;;;;;;5075469;28;20209;-73
2023/06/09 05:50:20;;;;;;;6.30;5.70;;;17.60;62.30;;;;;;5075307;28;20056;-73
2023/06/09 05:52:46;;;;;;;6.30;5.45;;;17.80;62.20;;;;;;5075310;28;20027;-76
2023/06/09 05:55:11;;;;;;;5.82;5.15;;;18.00;61.70;;;;;;5075311;28;20025;-74
2023/06/09 05:57:40;;;;;;;5.75;5.10;;;18.20;61.20;;;;;;5075435;28;20023;-73
2023/06/09 06:00:09;;;;;;;7.28;5.60;;;18.30;60.80;;;;;;5075145;28;20025;-77
2023/06/09 06:02:35;;;;;;;8.95;6.35;;;18.40;60.60;;;;;;5075072;28;20052;-71
2023/06/09 06:05:02;;;;;;;6.75;5.47;;;18.60;60.30;;;;;;5075144;28;20559;-71
2023/06/09 06:07:28;;;;;;;6.18;5.55;;;18.70;58.70;;;;;;5074923;28;20130;-74
2023/06/09 06:09:53;;;;;;;5.38;4.88;;;18.80;58.60;;;;;;5075035;28;20036;-82
2023/06/09 06:12:20;;;;;;;4.80;4.30;;;18.80;58.40;;;;;;5074986;28;20020;-71
2023/06/09 06:14:46;;;;;;;6.35;5.05;;;18.90;58.20;;;;;;5075130;28;20033;-86
2023/06/09 06:17:11;;;;;;;8.15;5.30;;;19.10;57.60;;;;;;5074006;28;20021;-83
2023/06/09 06:19:37;;;;;;;7.50;5.20;;;19.10;56.80;;;;;;5075081;28;20038;-79
2023/06/09 06:22:03;;;;;;;8.40;5.60;;;19.10;57.20;;;;;;5075267;28;20381;-88
2023/06/09 06:24:29;;;;;;;5.95;4.70;;;19.10;57.00;;;;;;5075794;28;20489;-78
2023/06/09 06:26:54;;;;;;;5.15;4.65;;;19.00;56.80;;;;;;5074393;28;20031;-78
2023/06/09 06:29:20;;;;;;;6.18;5.10;;;19.20;57.10;;;;;;5074424;28;20143;-78
2023/06/09 06:31:48;;;;;;;7.78;5.40;;;19.30;56.90;;;;;;5074322;28;20141;-70
2023/06/09 06:34:14;;;;;;;13.82;5.68;;;19.50;56.40;;;;;;5074747;28;20036;-78
2023/06/09 06:36:40;;;;;;;8.20;5.20;;;19.70;56.50;;;;;;5072546;28;20031;-78
2023/06/09 06:39:06;;;;;;;7.35;5.20;;;19.80;55.10;;;;;;5073123;28;20120;-77
2023/06/09 06:41:31;;;;;;;5.22;4.72;;;19.90;55.10;;;;;;5073211;28;20500;-77
2023/06/09 06:43:57;;;;;;;7.28;5.20;;;19.90;55.20;;;;;;5073094;28;20024;-74
2023/06/09 06:46:22;;;;;;;6.88;5.50;;;19.90;55.10;;;;;;5074026;28;20020;-74
2023/06/09 06:48:48;;;;;;;7.68;4.85;;;19.90;55.40;;;;;;5072937;28;20381;-72
2023/06/09 06:51:13;;;;;;;6.75;5.18;;;19.90;55.50;;;;;;5074339;28;20375;-72
2023/06/09 06:53:39;;;;;;;8.48;5.90;;;20.00;55.70;;;;;;5074144;28;20028;-72
2023/06/09 06:56:05;;;;;;;7.25;5.20;;;19.90;55.90;;;;;;5074144;28;20021;-72
2023/06/09 06:58:31;;;;;;;6.72;5.20;;;19.90;55.70;;;;;;5072817;28;20029;-72
2023/06/09 07:00:57;;;;;;;7.20;5.43;;;19.80;55.50;;;;;;5074221;28;20021;-72
2023/06/09 07:03:24;;;;;;;6.18;5.15;;;19.80;55.70;;;;;;5072866;28;20496;-74
2023/06/09 07:05:51;;;;;;;7.55;5.30;;;19.80;55.90;;;;;;5073683;28;20020;-73
2023/06/09 07:08:17;;;;;;;7.50;5.63;;;19.90;55.70;;;;;;5073863;28;20031;-74
2023/06/09 07:10:42;;;;;;;7.05;5.10;;;20.00;55.50;;;;;;5073621;28;20024;-72
2023/06/09 07:13:08;;;;;;;5.97;5.30;;;20.10;55.40;;;;;;5073776;28;20032;-72
2023/06/09 07:15:36;;;;;;;6.00;5.10;;;20.20;55.20;;;;;;5073734;28;20059;-73
2023/06/09 07:18:03;;;;;;;5.72;5.15;;;20.30;55.00;;;;;;5073685;28;20016;-73
2023/06/09 07:20:28;;;;;;;8.90;5.43;;;20.40;54.60;;;;;;5072560;28;20032;-73
2023/06/09 07:22:54;;;;;;;6.35;4.75;;;20.40;54.30;;;;;;5073460;28;20505;-73
2023/06/09 07:25:20;;;;;;;8.35;5.32;;;20.40;54.30;;;;;;5073188;28;20021;-73
2023/06/09 07:27:45;;;;;;;5.68;5.03;;;20.40;55.00;;;;;;5073427;28;20048;-73
2023/06/09 07:30:11;;;;;;;9.90;5.32;;;20.40;54.50;;;;;;5073340;28;20203;-73
2023/06/09 07:32:39;;;;;;;7.50;5.20;;;20.60;54.30;;;;;;5073110;28;20028;-73
2023/06/09 07:35:05;;;;;;;5.63;5.03;;;20.70;53.20;;;;;;5073138;28;20016;-72
2023/06/09 07:37:31;;;;;;;4.80;4.30;;;20.80;52.60;;;;;;5073205;28;20028;-73
2023/06/09 07:39:57;;;;;;;5.85;4.82;;;20.90;52.40;;;;;;5072989;28;20495;-73
2023/06/09 07:42:23;;;;;;;7.53;4.70;;;21.00;51.20;;;;;;5072692;28;20078;-73
2023/06/09 07:44:48;;;;;;;7.75;4.72;;;21.00;50.70;;;;;;5073010;28;20032;-72
2023/06/09 07:47:14;;;;;;;6.47;4.63;;;20.90;50.80;;;;;;5072952;28;20480;-79
2023/06/09 07:49:40;;;;;;;5.82;3.97;;;21.00;50.20;;;;;;5073852;28;20036;-86
2023/06/09 07:52:06;;;;;;;5.00;4.50;;;21.00;50.00;;;;;;5074358;28;20013;-88
2023/06/09 07:54:31;;;;;;;5.45;4.10;;;21.00;49.80;;;;;;5076304;28;20032;-76
2023/06/09 07:56:57;;;;;;;6.20;4.40;;;21.10;50.00;;;;;;5082820;28;20036;-72
2023/06/09 07:59:23;;;;;;;5.05;4.53;;;21.10;48.90;;;;;;5083234;28;20024;-73
2023/06/09 08:01:48;;;;;;;7.22;4.57;;;21.20;48.80;;;;;;5081454;28;20044;-72
2023/06/09 08:04:15;;;;;;;6.00;3.85;;;21.20;48.30;;;;;;5083073;28;20043;-73
2023/06/09 08:06:41;;;;;;;5.43;3.83;;;21.30;48.00;;;;;;5082620;28;20058;-75
2023/06/09 08:09:07;;;;;;;4.65;4.00;;;21.40;47.90;;;;;;5081410;28;20028;-75
2023/06/09 08:11:32;;;;;;;4.65;4.18;;;21.60;47.80;;;;;;5083392;28;20055;-84
2023/06/09 08:13:58;;;;;;;9.68;4.53;;;21.80;47.40;;;;;;5083967;28;20069;-85
2023/06/09 08:16:24;;;;;;;5.10;4.50;;;21.90;46.00;;;;;;5085039;28;20043;-80
2023/06/09 08:18:49;;;;;;;4.60;3.88;;;21.90;45.30;;;;;;5083336;28;20025;-89
2023/06/09 08:21:16;;;;;;;3.97;3.67;;;22.00;45.30;;;;;;5082473;28;20099;-90
2023/06/09 08:23:43;;;;;;;6.40;4.35;;;22.10;45.50;;;;;;5084637;28;20021;-78
2023/06/09 08:26:09;;;;;;;6.68;4.18;;;22.10;45.20;;;;;;5083623;28;20013;-76
2023/06/09 08:28:35;;;;;;;7.82;3.78;;;22.20;45.40;;;;;;5085040;28;20024;-89
2023/06/09 08:31:00;;;;;;;5.65;4.30;;;22.30;43.80;;;;;;5092497;28;20071;-91
2023/06/09 08:33:28;;;;;;;7.00;4.30;;;22.40;44.30;;;;;;5095890;28;20020;-90
2023/06/09 08:35:53;;;;;;;4.18;3.70;;;22.50;44.40;;;;;;5081599;28;20012;-90
2023/06/09 08:38:19;;;;;;;3.35;2.95;;;22.50;43.00;;;;;;5086064;28;20381;-82
2023/06/09 08:40:46;;;;;;;6.20;3.40;;;22.60;41.90;;;;;;5084441;28;20036;-90
2023/06/09 08:43:12;;;;;;;5.28;3.35;;;22.80;42.60;;;;;;5074460;28;20036;-89
2023/06/09 08:45:43;;;;;;;4.10;3.17;;;23.00;41.50;;;;;;5073879;28;20020;-89
2023/06/09 08:48:09;;;;;;;5.63;3.20;;;23.10;40.60;;;;;;5072902;28;20033;-73
2023/06/09 08:50:41;;;;;;;4.90;3.67;;;23.30;39.80;;;;;;5072533;28;20016;-72
2023/06/09 08:53:08;;;;;;;4.28;3.50;;;23.30;39.30;;;;;;5072237;28;20457;-73
2023/06/09 08:55:35;;;;;;;4.13;3.50;;;23.20;39.90;;;;;;5072614;28;20024;-84
2023/06/09 08:58:02;;;;;;;3.67;3.38;;;23.40;40.00;;;;;;5071255;28;20025;-76
2023/06/09 09:00:28;;;;;;;3.50;3.20;;;23.50;40.60;;;;;;5079174;28;20680;-89
2023/06/09 09:02:56;;;;;;;3.83;3.20;;;23.70;39.60;;;;;;5077727;28;20098;-75
2023/06/09 09:05:21;;;;;;;3.58;3.28;;;23.80;38.40;;;;;;5076319;28;20023;-80
2023/06/09 09:07:47;;;;;;;4.97;3.80;;;23.90;39.30;;;;;;5078878;28;20024;-83
2023/06/09 09:10:14;;;;;;;3.40;3.10;;;24.10;39.10;;;;;;5076428;28;20366;-84
2023/06/09 09:13:07;;;;;;;3.85;3.05;;;24.00;38.30;;;;;;5076348;28;20097;-73
2023/06/09 09:15:32;;;;;;;3.30;3.00;;;24.20;38.80;;;;;;5072136;28;20040;-74
2023/06/09 09:17:58;;;;;;;3.90;3.42;;;24.30;37.90;;;;;;5075753;28;20025;-72
2023/06/09 09:20:35;;;;;;;3.50;3.20;;;24.40;37.60;;;;;;5074449;28;20029;-73
2023/06/09 09:23:03;;;;;;;3.92;3.53;;;24.50;37.80;;;;;;5074915;28;20040;-73
2023/06/09 09:25:30;;;;;;;3.58;3.17;;;24.30;35.90;;;;;;5076845;28;20480;-72
2023/06/09 09:28:10;;;;;;;4.63;3.50;;;24.00;36.50;;;;;;5077432;28;20029;-89
2023/06/09 09:30:40;;;;;;;4.10;3.72;;;23.90;37.60;;;;;;5076265;28;20024;-73
2023/06/09 09:33:16;;;;;;;6.38;3.30;;;23.80;38.50;;;;;;5076415;28;20507;-73
2023/06/09 09:35:56;;;;;;;4.88;3.58;;;23.80;36.80;;;;;;5076160;28;20027;-72
2023/06/09 09:38:22;;;;;;;4.47;3.53;;;23.80;37.90;;;;;;5090139;28;20217;-73
2023/06/09 09:40:51;;;;;;;3.55;3.25;;;23.90;36.90;;;;;;5095181;28;20069;-74
2023/06/09 09:43:18;;;;;;;4.07;3.67;;;23.90;36.90;;;;;;5094394;28;20040;-72
2023/06/09 09:45:50;;;;;;;4.95;3.20;;;24.00;37.60;;;;;;5095684;28;20020;-72
2023/06/09 09:48:19;;;;;;;4.32;3.25;;;24.10;37.60;;;;;;5095523;28;20046;-72
2023/06/09 09:50:46;;;;;;;3.80;3.33;;;24.20;37.40;;;;;;5095790;28;20055;-75
2023/06/09 09:53:12;;;;;;;4.32;3.35;;;24.50;37.50;;;;;;5095991;28;20038;-86
2023/06/09 09:55:42;;;;;;;4.32;3.20;;;24.80;37.20;;;;;;5096224;28;20095;-76
2023/06/09 09:58:09;;;;;;;3.85;3.38;;;25.00;36.60;;;;;;5089522;28;20024;-73
2023/06/09 10:00:36;;;;;;;4.10;3.42;;;25.30;35.30;;;;;;5085401;28;20434;-78
2023/06/09 10:03:29;;;;;;;5.63;3.40;;;25.40;35.90;;;;;;5086956;28;20024;-73
2023/06/09 10:05:57;;;;;;;3.70;3.40;;;25.70;34.10;;;;;;5082720;28;20035;-73
2023/06/09 10:08:27;;;;;;;3.63;3.30;;;25.70;34.20;;;;;;5084017;28;20047;-72
2023/06/09 10:10:54;;;;;;;4.28;3.30;;;25.80;34.00;;;;;;5085200;28;20427;-74
2023/06/09 10:13:20;;;;;;;3.78;3.20;;;26.00;33.70;;;;;;5084583;28;20021;-79
2023/06/09 10:15:46;;;;;;;4.05;3.65;;;26.10;32.90;;;;;;5075108;28;20021;-77
2023/06/09 10:18:12;;;;;;;6.55;3.17;;;26.00;31.40;;;;;;5075283;28;20031;-73
2023/06/09 10:20:40;;;;;;;3.63;3.33;;;26.10;32.70;;;;;;5074771;28;20016;-72
2023/06/09 10:23:06;;;;;;;4.10;3.63;;;26.00;32.00;;;;;;5074799;28;20021;-73
2023/06/09 10:25:32;;;;;;;5.32;3.53;;;25.90;31.80;;;;;;5074612;28;20024;-72
2023/06/09 10:27:58;;;;;;;4.50;3.53;;;25.80;32.30;;;;;;5074909;28;20104;-76
2023/06/09 10:30:24;;;;;;;5.25;3.78;;;26.00;32.40;;;;;;5074692;28;20039;-82
2023/06/09 10:32:58;;;;;;;3.63;3.33;;;25.70;31.80;;;;;;5081624;28;20021;-84
2023/06/09 10:35:27;;;;;;;4.60;3.50;;;25.60;31.50;;;;;;5080433;28;20021;-73
2023/06/09 10:37:54;;;;;;;3.30;2.97;;;25.60;32.80;;;;;;5074607;28;20099;-73
2023/06/09 10:40:28;;;;;;;3.53;3.22;;;25.80;34.40;;;;;;5074668;28;20439;-73
2023/06/09 10:43:02;;;;;;;7.30;4.85;;;26.10;34.10;;;;;;5074006;28;20473;-72
2023/06/09 10:45:55;;;;;;;11.55;5.25;;;26.50;32.70;;;;;;5074283;28;20459;-69
2023/06/09 10:48:57;;;;;;;4.85;3.28;;;26.70;31.90;;;;;;5069739;28;20442;-70
2023/06/09 10:51:28;;;;;;;3.95;3.35;;;26.70;31.50;;;;;;5074741;28;20037;-71
2023/06/09 10:54:12;;;;;;;3.53;3.22;;;26.70;31.80;;;;;;5079497;28;20133;-71
2023/06/09 10:56:40;;;;;;;5.82;3.45;;;26.70;31.90;;;;;;5074087;28;20035;-82
2023/06/09 10:59:26;;;;;;;4.82;3.58;;;26.60;31.40;;;;;;5074130;28;20032;-71
2023/06/09 11:02:01;;;;;;;13.52;11.77;;;26.50;31.00;;;;;;5073890;28;20064;-72
2023/06/09 11:04:43;;;;;;;5.65;5.05;;;26.40;30.70;;;;;;5073878;28;20068;-72
2023/06/09 11:07:09;;;;;;;4.90;4.40;;;26.20;31.20;;;;;;5074153;28;20060;-72
2023/06/09 11:09:36;;;;;;;4.35;3.92;;;26.10;31.60;;;;;;5073771;28;20087;-73
2023/06/09 11:12:01;;;;;;;3.53;3.22;;;26.00;32.00;;;;;;5073788;28;20087;-72
2023/06/09 11:14:46;;;;;;;3.92;3.35;;;26.00;32.40;;;;;;5073790;28;20542;-73
2023/06/09 11:17:39;;;;;;;4.18;3.03;;;25.90;32.40;;;;;;5073728;28;20031;-72
2023/06/09 11:20:18;;;;;;;4.53;3.10;;;26.20;33.30;;;;;;5066513;28;20086;-73
2023/06/09 11:22:54;;;;;;;3.60;3.25;;;26.50;32.70;;;;;;5071576;28;20059;-71
2023/06/09 11:25:19;;;;;;;5.13;3.25;;;26.50;30.30;;;;;;5073464;28;20024;-72
2023/06/09 11:27:46;;;;;;;4.07;3.05;;;26.50;30.00;;;;;;5072246;28;20020;-72
2023/06/09 11:30:20;;;;;;;4.65;3.50;;;26.40;30.60;;;;;;5073499;28;20024;-71
2023/06/09 11:32:49;;;;;;;4.32;2.90;;;26.40;30.90;;;;;;5073578;28;20119;-71
2023/06/09 11:35:39;;;;;;;4.40;3.55;;;26.30;31.30;;;;;;5073340;28;20043;-71
2023/06/09 11:38:07;;;;;;;4.13;3.50;;;26.30;31.60;;;;;;5073226;28;20509;-71
2023/06/09 11:40:35;;;;;;;6.00;4.10;;;26.30;31.30;;;;;;5073318;28;20044;-71
2023/06/09 11:43:06;;;;;;;3.88;3.40;;;26.50;30.70;;;;;;5073343;28;20048;-71
2023/06/09 11:45:32;;;;;;;3.72;3.42;;;26.60;30.20;;;;;;5073311;28;20017;-71
2023/06/09 11:47:59;;;;;;;4.45;3.47;;;26.60;30.00;;;;;;5073092;28;20027;-71
2023/06/09 11:50:35;;;;;;;3.95;3.53;;;26.80;31.30;;;;;;5072875;28;20090;-72
2023/06/09 11:53:08;;;;;;;4.10;3.30;;;27.20;31.30;;;;;;5073137;28;20032;-72
2023/06/09 11:55:34;;;;;;;4.30;3.08;;;27.70;29.40;;;;;;5073114;28;20385;-72
2023/06/09 11:58:01;;;;;;;6.35;3.55;;;28.20;29.60;;;;;;5073026;28;20032;-71
2023/06/09 12:00:28;;;;;;;5.32;3.40;;;28.70;28.60;;;;;;5072976;28;20350;-72
2023/06/09 12:02:55;;;;;;;4.20;3.65;;;29.00;27.20;;;;;;5072830;28;20032;-72
2023/06/09 12:05:23;;;;;;;4.35;3.50;;;29.30;27.80;;;;;;5073032;28;20021;-72
2023/06/09 12:07:50;;;;;;;4.28;3.63;;;29.30;28.00;;;;;;5073028;28;20034;-72
2023/06/09 12:10:19;;;;;;;4.22;3.15;;;29.30;27.50;;;;;;5071647;28;20062;-72
2023/06/09 12:12:48;;;;;;;4.75;3.58;;;29.50;27.30;;;;;;5073415;28;20064;-72
2023/06/09 12:15:15;;;;;;;4.47;3.15;;;29.70;24.90;;;;;;5072620;28;20025;-71
2023/06/09 12:17:41;;;;;;;2.88;2.67;;;29.90;24.40;;;;;;5073155;28;20036;-72
2023/06/09 12:20:25;;;;;;;3.60;3.28;;;30.10;23.90;;;;;;5072805;28;20385;-71
2023/06/09 12:22:55;;;;;;;5.45;3.03;;;30.50;23.30;;;;;;5071477;28;20037;-71
2023/06/09 12:25:28;;;;;;;3.10;2.80;;;30.60;23.00;;;;;;5072722;28;20024;-69
2023/06/09 12:27:55;;;;;;;3.80;3.40;;;30.80;22.50;;;;;;5072732;28;20373;-70
2023/06/09 12:30:39;;;;;;;3.85;3.17;;;31.10;21.60;;;;;;5071337;28;20028;-72
2023/06/09 12:33:12;;;;;;;4.53;3.63;;;31.40;19.40;;;;;;5072519;28;20024;-71
2023/06/09 12:36:09;;;;;;;3.63;3.30;;;31.50;18.10;;;;;;5076388;28;20063;-71
2023/06/09 12:38:37;;;;;;;3.97;3.28;;;31.40;20.10;;;;;;5075816;28;20048;-71
2023/06/09 12:41:08;;;;;;;3.47;3.05;;;31.20;20.30;;;;;;5076269;28;20035;-71
2023/06/09 12:43:55;;;;;;;4.35;2.97;;;31.20;20.70;;;;;;5076331;28;20496;-71
2023/06/09 12:46:38;;;;;;;4.43;3.25;;;31.30;21.00;;;;;;5076436;28;20125;-70
2023/06/09 12:49:05;;;;;;;3.95;3.55;;;30.90;20.60;;;;;;5076554;28;20081;-71
2023/06/09 12:51:36;;;;;;;3.65;3.35;;;30.70;21.80;;;;;;5076456;28;20070;-72
2023/06/09 12:54:03;;;;;;;4.18;3.75;;;30.30;22.20;;;;;;5076417;28;20100;-71